sensor_id;sensor_type;location;lat;lon;timestamp;pressure;altitude;pressure_sealevel;temperature;humidity
46111;BME280;31849;55.992;37.252;2023-07-29T00:04:57;98149.03;;;19.03;61.25
46111;BME280;31849;55.992;37.252;2023-07-29T00:10:00;98141.66;;;18.94;60.98
46111;BME280;31849;55.992;37.252;2023-07-29T00:15:07;98139.47;;;18.86;61.36
46111;BME280;31849;55.992;37.252;2023-07-29T00:20:12;98162.38;;;19.00;61.29
46111;BME280;31849;55.992;37.252;2023-07-29T00:25:15;98165.44;;;18.92;61.22
46111;BME280;31849;55.992;37.252;2023-07-29T00:30:19;98169.25;;;19.03;61.02
46111;BME280;31849;55.992;37.252;2023-07-29T00:35:25;98149.19;;;19.00;61.31
46111;BME280;31849;55.992;37.252;2023-07-29T00:40:29;98154.72;;;18.95;61.43
46111;BME280;31849;55.992;37.252;2023-07-29T00:45:34;98161.78;;;18.95;61.52
46111;BME280;31849;55.992;37.252;2023-07-29T00:50:39;98160.69;;;18.99;61.53
46111;BME280;31849;55.992;37.252;2023-07-29T00:55:43;98148.78;;;18.76;61.79
46111;BME280;31849;55.992;37.252;2023-07-29T01:00:47;98156.38;;;18.66;62.09
46111;BME280;31849;55.992;37.252;2023-07-29T01:06:01;98158.03;;;18.83;61.44
46111;BME280;31849;55.992;37.252;2023-07-29T01:11:18;98153.16;;;18.93;61.05
46111;BME280;31849;55.992;37.252;2023-07-29T01:16:31;98141.25;;;18.86;61.58
46111;BME280;31849;55.992;37.252;2023-07-29T01:21:38;98132.81;;;18.79;61.80
46111;BME280;31849;55.992;37.252;2023-07-29T01:26:43;98143.91;;;18.86;61.62
46111;BME280;31849;55.992;37.252;2023-07-29T01:31:51;98135.63;;;18.92;61.66
46111;BME280;31849;55.992;37.252;2023-07-29T01:36:59;98132.16;;;18.91;61.62
46111;BME280;31849;55.992;37.252;2023-07-29T01:42:07;98120.94;;;18.72;62.19
46111;BME280;31849;55.992;37.252;2023-07-29T01:47:13;98126.66;;;18.64;62.27
46111;BME280;31849;55.992;37.252;2023-07-29T01:52:17;98100.94;;;18.53;62.18
46111;BME280;31849;55.992;37.252;2023-07-29T01:57:22;98116.34;;;18.75;62.01
46111;BME280;31849;55.992;37.252;2023-07-29T02:02:25;98099.50;;;18.48;62.34
46111;BME280;31849;55.992;37.252;2023-07-29T02:07:29;98076.69;;;18.32;62.72
46111;BME280;31849;55.992;37.252;2023-07-29T02:12:34;98115.03;;;18.52;62.66
46111;BME280;31849;55.992;37.252;2023-07-29T02:17:41;98118.75;;;18.64;62.67
46111;BME280;31849;55.992;37.252;2023-07-29T02:22:46;98127.25;;;18.53;62.65
46111;BME280;31849;55.992;37.252;2023-07-29T02:27:52;98121.81;;;18.72;62.61
46111;BME280;31849;55.992;37.252;2023-07-29T02:32:56;98123.91;;;18.66;62.59
46111;BME280;31849;55.992;37.252;2023-07-29T02:37:59;98125.63;;;18.67;62.45
46111;BME280;31849;55.992;37.252;2023-07-29T02:43:04;98141.72;;;18.76;62.63
46111;BME280;31849;55.992;37.252;2023-07-29T02:48:08;98149.91;;;18.72;62.48
46111;BME280;31849;55.992;37.252;2023-07-29T02:53:12;98148.03;;;18.74;62.63
46111;BME280;31849;55.992;37.252;2023-07-29T02:58:17;98145.41;;;18.90;62.30
46111;BME280;31849;55.992;37.252;2023-07-29T03:03:21;98146.75;;;18.81;62.22
46111;BME280;31849;55.992;37.252;2023-07-29T03:08:24;98110.31;;;18.73;62.36
46111;BME280;31849;55.992;37.252;2023-07-29T03:13:30;98125.16;;;19.21;61.54
46111;BME280;31849;55.992;37.252;2023-07-29T03:18:33;98118.38;;;19.02;61.91
46111;BME280;31849;55.992;37.252;2023-07-29T03:23:38;98116.97;;;19.11;62.01
46111;BME280;31849;55.992;37.252;2023-07-29T03:28:43;98115.50;;;19.21;61.72
46111;BME280;31849;55.992;37.252;2023-07-29T03:33:51;98106.91;;;19.03;61.76
46111;BME280;31849;55.992;37.252;2023-07-29T03:38:55;98098.63;;;19.09;61.76
46111;BME280;31849;55.992;37.252;2023-07-29T03:44:02;98101.09;;;19.27;61.42
46111;BME280;31849;55.992;37.252;2023-07-29T03:49:05;98096.75;;;19.11;61.55
46111;BME280;31849;55.992;37.252;2023-07-29T03:54:09;98095.25;;;19.22;61.34
46111;BME280;31849;55.992;37.252;2023-07-29T03:59:14;98083.31;;;19.30;61.06
46111;BME280;31849;55.992;37.252;2023-07-29T04:04:18;98087.00;;;19.42;60.70
46111;BME280;31849;55.992;37.252;2023-07-29T04:09:22;98079.84;;;19.44;60.88
46111;BME280;31849;55.992;37.252;2023-07-29T04:14:27;98068.06;;;19.50;60.89
46111;BME280;31849;55.992;37.252;2023-07-29T04:19:30;98082.72;;;19.25;61.19
46111;BME280;31849;55.992;37.252;2023-07-29T04:24:34;98093.13;;;19.43;60.65
46111;BME280;31849;55.992;37.252;2023-07-29T04:29:39;98084.44;;;19.69;60.33
46111;BME280;31849;55.992;37.252;2023-07-29T04:34:43;98083.16;;;19.48;60.58
46111;BME280;31849;55.992;37.252;2023-07-29T04:39:46;98083.22;;;19.61;60.03
46111;BME280;31849;55.992;37.252;2023-07-29T04:44:52;98082.22;;;19.78;59.75
46111;BME280;31849;55.992;37.252;2023-07-29T04:49:55;98084.88;;;19.78;59.69
46111;BME280;31849;55.992;37.252;2023-07-29T04:54:59;98079.31;;;19.82;59.47
46111;BME280;31849;55.992;37.252;2023-07-29T05:00:07;98078.94;;;20.16;58.60
46111;BME280;31849;55.992;37.252;2023-07-29T05:05:12;98071.22;;;20.13;58.74
46111;BME280;31849;55.992;37.252;2023-07-29T05:10:15;98076.31;;;20.16;58.52
46111;BME280;31849;55.992;37.252;2023-07-29T05:15:20;98069.38;;;20.42;58.13
46111;BME280;31849;55.992;37.252;2023-07-29T05:20:24;98066.00;;;20.53;57.92
46111;BME280;31849;55.992;37.252;2023-07-29T05:25:28;98067.66;;;20.41;57.69
46111;BME280;31849;55.992;37.252;2023-07-29T05:30:33;98061.59;;;20.81;57.54
46111;BME280;31849;55.992;37.252;2023-07-29T05:35:39;98065.19;;;20.52;57.65
46111;BME280;31849;55.992;37.252;2023-07-29T05:40:43;98052.38;;;20.73;57.27
46111;BME280;31849;55.992;37.252;2023-07-29T05:45:48;98050.19;;;20.80;56.99
46111;BME280;31849;55.992;37.252;2023-07-29T05:50:51;98061.38;;;20.84;56.32
46111;BME280;31849;55.992;37.252;2023-07-29T05:55:55;98040.25;;;20.84;55.86
46111;BME280;31849;55.992;37.252;2023-07-29T06:01:00;98042.31;;;21.19;55.37
46111;BME280;31849;55.992;37.252;2023-07-29T06:06:04;98048.75;;;21.28;55.07
46111;BME280;31849;55.992;37.252;2023-07-29T06:11:07;98041.56;;;21.42;55.09
46111;BME280;31849;55.992;37.252;2023-07-29T06:16:12;98051.69;;;21.49;54.76
46111;BME280;31849;55.992;37.252;2023-07-29T06:21:16;98064.28;;;21.45;54.78
46111;BME280;31849;55.992;37.252;2023-07-29T06:26:22;98061.88;;;21.55;54.26
46111;BME280;31849;55.992;37.252;2023-07-29T06:31:27;98073.69;;;21.49;54.31
46111;BME280;31849;55.992;37.252;2023-07-29T06:36:31;98070.53;;;21.31;54.25
46111;BME280;31849;55.992;37.252;2023-07-29T06:41:35;98077.72;;;21.29;54.39
46111;BME280;31849;55.992;37.252;2023-07-29T06:46:40;98092.53;;;21.44;54.26
46111;BME280;31849;55.992;37.252;2023-07-29T06:51:44;98095.50;;;21.40;54.41
46111;BME280;31849;55.992;37.252;2023-07-29T06:56:48;98107.88;;;21.52;54.43
46111;BME280;31849;55.992;37.252;2023-07-29T07:01:53;98109.16;;;21.59;54.25
46111;BME280;31849;55.992;37.252;2023-07-29T07:06:56;98119.09;;;21.69;54.32
46111;BME280;31849;55.992;37.252;2023-07-29T07:12:00;98120.69;;;21.84;53.90
46111;BME280;31849;55.992;37.252;2023-07-29T07:17:05;98122.31;;;22.24;53.20
46111;BME280;31849;55.992;37.252;2023-07-29T07:22:13;98129.50;;;22.22;52.53
46111;BME280;31849;55.992;37.252;2023-07-29T07:27:17;98137.09;;;22.26;52.37
46111;BME280;31849;55.992;37.252;2023-07-29T07:32:22;98133.75;;;22.37;52.20
46111;BME280;31849;55.992;37.252;2023-07-29T07:37:26;98132.19;;;22.46;52.22
46111;BME280;31849;55.992;37.252;2023-07-29T07:42:29;98143.78;;;22.69;51.56
46111;BME280;31849;55.992;37.252;2023-07-29T07:47:34;98142.88;;;22.57;52.02
46111;BME280;31849;55.992;37.252;2023-07-29T07:52:38;98146.00;;;22.38;51.77
46111;BME280;31849;55.992;37.252;2023-07-29T07:57:42;98128.13;;;22.16;51.85
46111;BME280;31849;55.992;37.252;2023-07-29T08:02:47;98123.81;;;22.15;51.50
46111;BME280;31849;55.992;37.252;2023-07-29T08:07:50;98131.09;;;22.24;51.93
46111;BME280;31849;55.992;37.252;2023-07-29T08:12:54;98119.03;;;22.20;51.77
46111;BME280;31849;55.992;37.252;2023-07-29T08:17:59;98114.97;;;22.27;51.64
46111;BME280;31849;55.992;37.252;2023-07-29T08:23:02;98111.31;;;22.04;51.46
46111;BME280;31849;55.992;37.252;2023-07-29T08:28:06;98128.28;;;22.02;51.55
46111;BME280;31849;55.992;37.252;2023-07-29T08:33:11;98110.59;;;22.02;51.52
46111;BME280;31849;55.992;37.252;2023-07-29T08:38:15;98116.44;;;21.94;51.76
46111;BME280;31849;55.992;37.252;2023-07-29T08:43:19;98110.56;;;22.15;51.54
46111;BME280;31849;55.992;37.252;2023-07-29T08:48:31;98106.22;;;22.14;51.48
46111;BME280;31849;55.992;37.252;2023-07-29T08:53:36;98121.38;;;22.49;51.57
46111;BME280;31849;55.992;37.252;2023-07-29T08:58:40;98106.28;;;22.87;50.94
46111;BME280;31849;55.992;37.252;2023-07-29T09:03:45;98107.25;;;23.21;49.77
46111;BME280;31849;55.992;37.252;2023-07-29T09:08:49;98108.06;;;23.68;49.69
46111;BME280;31849;55.992;37.252;2023-07-29T09:13:54;98110.13;;;23.99;47.93
46111;BME280;31849;55.992;37.252;2023-07-29T09:19:00;98117.34;;;24.31;47.47
46111;BME280;31849;55.992;37.252;2023-07-29T09:24:05;98109.06;;;24.01;46.83
46111;BME280;31849;55.992;37.252;2023-07-29T09:29:09;98102.03;;;24.00;46.69
46111;BME280;31849;55.992;37.252;2023-07-29T09:34:15;98109.53;;;23.95;46.95
46111;BME280;31849;55.992;37.252;2023-07-29T09:39:23;98112.50;;;24.36;46.30
46111;BME280;31849;55.992;37.252;2023-07-29T09:44:26;98120.38;;;24.15;45.96
46111;BME280;31849;55.992;37.252;2023-07-29T09:49:34;98113.50;;;24.23;45.29
46111;BME280;31849;55.992;37.252;2023-07-29T09:54:39;98123.59;;;23.62;46.19
46111;BME280;31849;55.992;37.252;2023-07-29T09:59:42;98115.72;;;23.38;46.45
46111;BME280;31849;55.992;37.252;2023-07-29T10:04:48;98121.31;;;23.46;46.12
46111;BME280;31849;55.992;37.252;2023-07-29T10:09:53;98125.88;;;23.44;46.15
46111;BME280;31849;55.992;37.252;2023-07-29T10:14:59;98128.50;;;23.91;45.64
46111;BME280;31849;55.992;37.252;2023-07-29T10:20:08;98117.50;;;23.95;45.64
46111;BME280;31849;55.992;37.252;2023-07-29T10:25:15;98133.88;;;23.78;45.47
46111;BME280;31849;55.992;37.252;2023-07-29T10:30:19;98136.81;;;23.97;44.99
46111;BME280;31849;55.992;37.252;2023-07-29T10:35:25;98135.00;;;23.86;45.13
46111;BME280;31849;55.992;37.252;2023-07-29T10:40:43;98131.16;;;23.91;44.15
46111;BME280;31849;55.992;37.252;2023-07-29T10:45:47;98145.81;;;23.83;44.18
46111;BME280;31849;55.992;37.252;2023-07-29T10:51:27;98111.59;;;23.92;44.21
46111;BME280;31849;55.992;37.252;2023-07-29T10:56:33;98126.03;;;23.76;43.83
46111;BME280;31849;55.992;37.252;2023-07-29T11:01:39;98138.09;;;23.80;44.02
46111;BME280;31849;55.992;37.252;2023-07-29T11:07:22;98132.56;;;23.83;43.55
46111;BME280;31849;55.992;37.252;2023-07-29T11:12:44;98122.56;;;23.87;44.05
46111;BME280;31849;55.992;37.252;2023-07-29T11:17:51;98117.47;;;23.61;44.28
46111;BME280;31849;55.992;37.252;2023-07-29T11:22:59;98119.41;;;23.59;44.07
46111;BME280;31849;55.992;37.252;2023-07-29T11:28:03;98135.28;;;23.48;44.36
46111;BME280;31849;55.992;37.252;2023-07-29T11:33:08;98133.75;;;23.57;44.03
46111;BME280;31849;55.992;37.252;2023-07-29T11:38:16;98133.75;;;23.79;44.21
46111;BME280;31849;55.992;37.252;2023-07-29T11:43:20;98142.06;;;23.75;43.62
46111;BME280;31849;55.992;37.252;2023-07-29T11:48:28;98145.25;;;23.91;43.50
46111;BME280;31849;55.992;37.252;2023-07-29T11:53:33;98143.81;;;23.98;43.60
46111;BME280;31849;55.992;37.252;2023-07-29T11:58:37;98144.03;;;23.73;43.72
46111;BME280;31849;55.992;37.252;2023-07-29T12:03:41;98148.28;;;23.98;42.81
46111;BME280;31849;55.992;37.252;2023-07-29T12:08:47;98133.91;;;24.00;43.03
46111;BME280;31849;55.992;37.252;2023-07-29T12:13:54;98157.06;;;23.87;43.07
46111;BME280;31849;55.992;37.252;2023-07-29T12:19:00;98152.13;;;24.16;42.61
46111;BME280;31849;55.992;37.252;2023-07-29T12:24:05;98159.00;;;24.30;42.53
46111;BME280;31849;55.992;37.252;2023-07-29T12:29:13;98161.63;;;24.53;42.25
46111;BME280;31849;55.992;37.252;2023-07-29T12:34:20;98150.88;;;24.43;42.84
46111;BME280;31849;55.992;37.252;2023-07-29T12:39:27;98154.41;;;24.44;42.37
46111;BME280;31849;55.992;37.252;2023-07-29T12:44:32;98156.94;;;24.22;42.95
46111;BME280;31849;55.992;37.252;2023-07-29T12:49:37;98151.88;;;24.19;42.75
46111;BME280;31849;55.992;37.252;2023-07-29T12:54:42;98136.44;;;24.25;42.97
46111;BME280;31849;55.992;37.252;2023-07-29T12:59:46;98141.75;;;24.13;42.78
46111;BME280;31849;55.992;37.252;2023-07-29T13:04:50;98144.03;;;24.18;42.88
46111;BME280;31849;55.992;37.252;2023-07-29T13:09:55;98141.88;;;24.00;42.87
46111;BME280;31849;55.992;37.252;2023-07-29T13:14:58;98143.19;;;24.17;42.77
46111;BME280;31849;55.992;37.252;2023-07-29T13:20:06;98137.00;;;24.39;42.77
46111;BME280;31849;55.992;37.252;2023-07-29T13:25:11;98126.72;;;24.46;42.26
46111;BME280;31849;55.992;37.252;2023-07-29T13:30:15;98133.75;;;24.36;42.78
46111;BME280;31849;55.992;37.252;2023-07-29T13:35:19;98120.63;;;24.23;43.05
46111;BME280;31849;55.992;37.252;2023-07-29T13:40:24;98120.13;;;24.29;43.42
46111;BME280;31849;55.992;37.252;2023-07-29T13:45:27;98104.94;;;24.09;43.49
46111;BME280;31849;55.992;37.252;2023-07-29T13:50:31;98111.94;;;23.98;44.11
46111;BME280;31849;55.992;37.252;2023-07-29T13:55:37;98102.28;;;24.09;44.12
46111;BME280;31849;55.992;37.252;2023-07-29T14:00:40;98111.28;;;24.29;43.63
46111;BME280;31849;55.992;37.252;2023-07-29T14:05:44;98108.75;;;24.38;43.86
46111;BME280;31849;55.992;37.252;2023-07-29T14:10:50;98097.28;;;24.82;43.51
46111;BME280;31849;55.992;37.252;2023-07-29T14:15:53;98098.44;;;24.68;43.42
46111;BME280;31849;55.992;37.252;2023-07-29T14:20:57;98096.91;;;24.86;43.38
46111;BME280;31849;55.992;37.252;2023-07-29T14:26:02;98090.59;;;24.99;42.87
46111;BME280;31849;55.992;37.252;2023-07-29T14:31:06;98089.06;;;24.85;42.72
46111;BME280;31849;55.992;37.252;2023-07-29T14:36:10;98094.56;;;24.72;43.49
46111;BME280;31849;55.992;37.252;2023-07-29T14:41:15;98093.28;;;24.87;43.13
46111;BME280;31849;55.992;37.252;2023-07-29T14:46:18;98091.31;;;24.68;43.00
46111;BME280;31849;55.992;37.252;2023-07-29T14:51:22;98099.56;;;24.86;43.10
46111;BME280;31849;55.992;37.252;2023-07-29T14:56:27;98086.84;;;24.69;41.67
46111;BME280;31849;55.992;37.252;2023-07-29T15:01:31;98093.75;;;24.60;41.92
46111;BME280;31849;55.992;37.252;2023-07-29T15:06:34;98091.41;;;24.99;42.24
46111;BME280;31849;55.992;37.252;2023-07-29T15:11:40;98087.63;;;24.81;42.46
46111;BME280;31849;55.992;37.252;2023-07-29T15:16:44;98077.19;;;24.68;42.42
46111;BME280;31849;55.992;37.252;2023-07-29T15:21:48;98080.25;;;24.84;42.36
46111;BME280;31849;55.992;37.252;2023-07-29T15:26:53;98092.94;;;24.81;42.25
46111;BME280;31849;55.992;37.252;2023-07-29T15:31:56;98080.22;;;24.52;42.47
46111;BME280;31849;55.992;37.252;2023-07-29T15:37:01;98083.97;;;24.49;42.91
46111;BME280;31849;55.992;37.252;2023-07-29T15:42:07;98094.25;;;24.43;42.81
46111;BME280;31849;55.992;37.252;2023-07-29T15:47:10;98095.66;;;24.14;43.73
46111;BME280;31849;55.992;37.252;2023-07-29T15:52:18;98103.44;;;24.27;43.71
46111;BME280;31849;55.992;37.252;2023-07-29T15:57:23;98098.81;;;24.08;43.70
46111;BME280;31849;55.992;37.252;2023-07-29T16:02:27;98108.97;;;23.92;44.23
46111;BME280;31849;55.992;37.252;2023-07-29T16:07:30;98107.50;;;23.87;44.24
46111;BME280;31849;55.992;37.252;2023-07-29T16:12:35;98102.06;;;23.89;44.51
46111;BME280;31849;55.992;37.252;2023-07-29T16:17:43;98096.47;;;23.58;45.00
46111;BME280;31849;55.992;37.252;2023-07-29T16:22:48;98115.19;;;23.68;45.31
46111;BME280;31849;55.992;37.252;2023-07-29T16:27:54;98123.75;;;23.71;45.09
46111;BME280;31849;55.992;37.252;2023-07-29T16:32:59;98107.22;;;23.57;45.47
46111;BME280;31849;55.992;37.252;2023-07-29T16:38:03;98114.78;;;23.50;45.90
46111;BME280;31849;55.992;37.252;2023-07-29T16:43:08;98111.91;;;23.64;46.13
46111;BME280;31849;55.992;37.252;2023-07-29T16:48:11;98112.50;;;23.57;47.01
46111;BME280;31849;55.992;37.252;2023-07-29T16:53:15;98120.69;;;23.42;46.95
46111;BME280;31849;55.992;37.252;2023-07-29T16:58:20;98115.97;;;23.34;47.18
46111;BME280;31849;55.992;37.252;2023-07-29T17:03:24;98124.47;;;23.15;47.41
46111;BME280;31849;55.992;37.252;2023-07-29T17:08:28;98132.84;;;23.33;47.09
46111;BME280;31849;55.992;37.252;2023-07-29T17:13:33;98111.31;;;22.78;49.34
46111;BME280;31849;55.992;37.252;2023-07-29T17:18:36;98120.53;;;22.48;49.43
46111;BME280;31849;55.992;37.252;2023-07-29T17:23:41;98112.78;;;22.21;50.33
46111;BME280;31849;55.992;37.252;2023-07-29T17:28:46;98104.88;;;21.95;50.96
46111;BME280;31849;55.992;37.252;2023-07-29T17:33:50;98121.13;;;21.65;52.07
46111;BME280;31849;55.992;37.252;2023-07-29T17:38:53;98127.00;;;21.43;52.66
46111;BME280;31849;55.992;37.252;2023-07-29T17:43:58;98128.47;;;21.34;52.98
46111;BME280;31849;55.992;37.252;2023-07-29T17:49:02;98124.97;;;21.08;53.54
46111;BME280;31849;55.992;37.252;2023-07-29T17:54:06;98125.44;;;20.87;53.93
46111;BME280;31849;55.992;37.252;2023-07-29T17:59:11;98128.88;;;20.75;54.58
46111;BME280;31849;55.992;37.252;2023-07-29T18:04:15;98124.09;;;20.53;55.18
46111;BME280;31849;55.992;37.252;2023-07-29T18:09:18;98115.78;;;20.32;55.76
46111;BME280;31849;55.992;37.252;2023-07-29T18:14:24;98129.97;;;20.16;56.22
46111;BME280;31849;55.992;37.252;2023-07-29T18:19:27;98129.75;;;19.62;57.46
46111;BME280;31849;55.992;37.252;2023-07-29T18:24:32;98122.66;;;19.33;57.93
46111;BME280;31849;55.992;37.252;2023-07-29T18:29:37;98147.44;;;19.15;58.58
46111;BME280;31849;55.992;37.252;2023-07-29T18:34:41;98147.38;;;18.86;59.03
46111;BME280;31849;55.992;37.252;2023-07-29T18:39:45;98157.72;;;18.73;59.45
46111;BME280;31849;55.992;37.252;2023-07-29T18:44:50;98162.78;;;18.76;59.42
46111;BME280;31849;55.992;37.252;2023-07-29T18:49:54;98145.41;;;18.58;59.96
46111;BME280;31849;55.992;37.252;2023-07-29T18:54:58;98138.41;;;18.42;60.19
46111;BME280;31849;55.992;37.252;2023-07-29T19:00:07;98140.41;;;18.37;61.04
46111;BME280;31849;55.992;37.252;2023-07-29T19:05:10;98143.03;;;18.21;61.07
46111;BME280;31849;55.992;37.252;2023-07-29T19:10:14;98132.28;;;18.10;61.46
46111;BME280;31849;55.992;37.252;2023-07-29T19:15:20;98137.63;;;18.08;61.71
46111;BME280;31849;55.992;37.252;2023-07-29T19:20:23;98127.63;;;17.82;62.19
46111;BME280;31849;55.992;37.252;2023-07-29T19:25:27;98137.88;;;17.86;61.86
46111;BME280;31849;55.992;37.252;2023-07-29T19:30:32;98145.78;;;17.86;61.74
46111;BME280;31849;55.992;37.252;2023-07-29T19:35:36;98155.88;;;17.61;62.16
46111;BME280;31849;55.992;37.252;2023-07-29T19:40:40;98166.03;;;17.51;62.17
46111;BME280;31849;55.992;37.252;2023-07-29T19:45:48;98168.66;;;17.51;62.37
46111;BME280;31849;55.992;37.252;2023-07-29T19:51:11;98176.84;;;17.27;62.78
46111;BME280;31849;55.992;37.252;2023-07-29T19:56:15;98162.97;;;17.25;62.51
46111;BME280;31849;55.992;37.252;2023-07-29T20:01:20;98151.66;;;17.40;62.23
46111;BME280;31849;55.992;37.252;2023-07-29T20:06:24;98137.38;;;17.29;62.26
46111;BME280;31849;55.992;37.252;2023-07-29T20:11:29;98138.28;;;17.28;62.42
46111;BME280;31849;55.992;37.252;2023-07-29T20:16:35;98147.28;;;17.23;62.34
46111;BME280;31849;55.992;37.252;2023-07-29T20:21:38;98144.63;;;17.06;62.42
46111;BME280;31849;55.992;37.252;2023-07-29T20:26:42;98169.56;;;16.97;62.46
46111;BME280;31849;55.992;37.252;2023-07-29T20:31:47;98180.38;;;16.91;63.00
46111;BME280;31849;55.992;37.252;2023-07-29T20:36:51;98174.00;;;16.78;63.09
46111;BME280;31849;55.992;37.252;2023-07-29T20:41:54;98164.78;;;16.69;63.12
46111;BME280;31849;55.992;37.252;2023-07-29T20:46:59;98157.75;;;16.69;63.18
46111;BME280;31849;55.992;37.252;2023-07-29T20:52:05;98169.53;;;16.61;63.48
46111;BME280;31849;55.992;37.252;2023-07-29T20:57:09;98156.19;;;16.65;63.13
46111;BME280;31849;55.992;37.252;2023-07-29T21:02:14;98168.81;;;16.76;63.26
46111;BME280;31849;55.992;37.252;2023-07-29T21:07:18;98171.66;;;16.72;63.01
46111;BME280;31849;55.992;37.252;2023-07-29T21:12:21;98165.56;;;16.71;62.87
46111;BME280;31849;55.992;37.252;2023-07-29T21:17:26;98171.72;;;16.70;63.18
46111;BME280;31849;55.992;37.252;2023-07-29T21:22:31;98176.50;;;16.62;63.11
46111;BME280;31849;55.992;37.252;2023-07-29T21:27:35;98172.47;;;16.55;63.23
46111;BME280;31849;55.992;37.252;2023-07-29T21:32:40;98171.41;;;16.59;63.14
46111;BME280;31849;55.992;37.252;2023-07-29T21:37:43;98170.13;;;16.48;63.16
46111;BME280;31849;55.992;37.252;2023-07-29T21:42:47;98166.78;;;16.45;63.16
46111;BME280;31849;55.992;37.252;2023-07-29T21:47:52;98164.03;;;16.48;63.27
46111;BME280;31849;55.992;37.252;2023-07-29T21:52:56;98156.81;;;16.34;63.01
46111;BME280;31849;55.992;37.252;2023-07-29T21:57:59;98160.84;;;16.22;63.33
46111;BME280;31849;55.992;37.252;2023-07-29T22:03:05;98158.09;;;16.25;62.92
46111;BME280;31849;55.992;37.252;2023-07-29T22:08:08;98164.03;;;16.10;63.53
46111;BME280;31849;55.992;37.252;2023-07-29T22:13:12;98166.44;;;16.14;63.45
46111;BME280;31849;55.992;37.252;2023-07-29T22:18:17;98161.78;;;16.21;63.89
46111;BME280;31849;55.992;37.252;2023-07-29T22:23:21;98165.47;;;16.17;63.78
46111;BME280;31849;55.992;37.252;2023-07-29T22:28:25;98158.88;;;16.08;63.78
46111;BME280;31849;55.992;37.252;2023-07-29T22:33:30;98166.53;;;16.13;63.60
46111;BME280;31849;55.992;37.252;2023-07-29T22:38:34;98163.66;;;15.98;63.91
46111;BME280;31849;55.992;37.252;2023-07-29T22:43:38;98167.47;;;15.91;63.91
46111;BME280;31849;55.992;37.252;2023-07-29T22:48:43;98163.66;;;15.98;63.52
46111;BME280;31849;55.992;37.252;2023-07-29T22:53:47;98167.00;;;15.83;63.84
46111;BME280;31849;55.992;37.252;2023-07-29T22:58:50;98151.13;;;15.86;64.04
46111;BME280;31849;55.992;37.252;2023-07-29T23:03:55;98153.53;;;15.91;64.21
46111;BME280;31849;55.992;37.252;2023-07-29T23:08:59;98152.97;;;15.84;64.08
46111;BME280;31849;55.992;37.252;2023-07-29T23:14:03;98143.63;;;15.78;64.20
46111;BME280;31849;55.992;37.252;2023-07-29T23:19:08;98145.88;;;15.86;64.26
46111;BME280;31849;55.992;37.252;2023-07-29T23:24:11;98155.88;;;15.76;64.68
46111;BME280;31849;55.992;37.252;2023-07-29T23:29:15;98151.28;;;15.83;64.33
46111;BME280;31849;55.992;37.252;2023-07-29T23:34:20;98147.31;;;15.93;63.73
46111;BME280;31849;55.992;37.252;2023-07-29T23:39:23;98155.59;;;15.84;63.99
46111;BME280;31849;55.992;37.252;2023-07-29T23:44:27;98153.88;;;15.83;63.81
46111;BME280;31849;55.992;37.252;2023-07-29T23:49:32;98156.38;;;15.86;64.03
46111;BME280;31849;55.992;37.252;2023-07-29T23:54:36;98152.34;;;15.77;64.24
46111;BME280;31849;55.992;37.252;2023-07-29T23:59:39;98164.50;;;15.80;64.18
